Time;durP1;ratioP1;P1;durP2;ratioP2;P2;SDS_P1;SDS_P2;PMS_P1;PMS_P2;Temp;Humidity;BMP_temperature;BMP_pressure;BME280_temperature;BME280_humidity;BME280_pressure;Samples;Min_cycle;Max_cycle;Signal;HPM_P1;HPM_P2
2022/09/10 00:01:49;;;;;;;;;;;15.70;99.90;;;;;;5079501;28;19989;-74
2022/09/10 00:04:15;;;;;;;;;;;15.60;99.90;;;;;;5080848;28;20002;-74
2022/09/10 00:06:41;;;;;;;;;;;15.70;99.90;;;;;;5074878;28;21551;-74
2022/09/10 00:09:07;;;;;;;;;;;15.70;99.90;;;;;;5079891;28;19941;-74
2022/09/10 00:11:34;;;;;;;;;;;15.80;99.90;;;;;;5079213;28;19919;-74
2022/09/10 00:14:00;;;;;;;;;;;15.70;99.90;;;;;;5075367;28;19916;-74
2022/09/10 00:16:26;;;;;;;;;;;15.70;99.90;;;;;;5079095;28;20061;-73
2022/09/10 00:18:52;;;;;;;;;;;15.60;99.90;;;;;;5079827;28;20373;-74
2022/09/10 00:21:19;;;;;;;;;;;15.50;99.90;;;;;;5078613;28;20193;-74
2022/09/10 00:23:45;;;;;;;;;;;15.50;99.90;;;;;;5078060;28;19923;-74
2022/09/10 00:26:34;;;;;;;;;;;15.50;99.90;;;;;;5080273;28;19951;-73
2022/09/10 00:28:59;;;;;;;;;;;15.40;99.90;;;;;;5075650;28;19935;-74
2022/09/10 00:31:25;;;;;;;;;;;15.30;99.90;;;;;;5077935;28;19916;-74
2022/09/10 00:33:51;;;;;;;;;;;15.30;99.90;;;;;;5080101;28;20624;-74
2022/09/10 00:36:18;;;;;;;;;;;15.30;99.90;;;;;;5077275;28;19920;-74
2022/09/10 00:38:45;;;;;;;;;;;15.20;99.90;;;;;;5101842;27;20622;-74
2022/09/10 00:41:11;;;;;;;;;;;15.20;99.90;;;;;;5077206;28;19926;-74
2022/09/10 00:43:47;;;;;;;;;;;15.20;99.90;;;;;;5078480;28;20004;-74
2022/09/10 00:46:15;;;;;;;;;;;15.20;99.90;;;;;;5078412;28;19962;-74
2022/09/10 00:48:41;;;;;;;;;;;15.20;99.90;;;;;;5074404;28;19965;-74
2022/09/10 00:51:06;;;;;;;;;;;15.20;99.90;;;;;;5074478;28;20500;-74
2022/09/10 00:53:32;;;;;;;;;;;15.20;99.90;;;;;;5078353;28;20393;-74
2022/09/10 00:55:59;;;;;;;;;;;15.20;99.90;;;;;;5076561;28;19920;-73
2022/09/10 00:58:25;;;;;;;;;;;15.20;99.90;;;;;;5081368;28;19987;-75
2022/09/10 01:00:56;;;;;;;;;;;15.20;99.90;;;;;;5081112;28;20405;-74
2022/09/10 01:03:24;;;;;;;;;;;15.20;99.90;;;;;;5080088;28;20264;-74
2022/09/10 01:05:50;;;;;;;;;;;15.10;99.90;;;;;;5079792;28;19927;-74
2022/09/10 01:08:17;;;;;;;;;;;15.00;99.90;;;;;;5080442;28;19920;-74
2022/09/10 01:10:58;;;;;;;;;;;15.00;99.90;;;;;;5080078;28;20490;-74
2022/09/10 01:13:49;;;;;;;;;;;15.00;99.90;;;;;;5079687;28;19915;-74
2022/09/10 01:16:37;;;;;;;;;;;15.00;99.90;;;;;;5080674;28;19920;-74
2022/09/10 01:19:03;;;;;;;;;;;15.00;99.90;;;;;;5079080;28;19920;-73
2022/09/10 01:21:53;;;;;;;;;;;15.00;99.90;;;;;;5079140;28;20108;-74
2022/09/10 01:24:31;;;;;;;;;;;15.00;99.90;;;;;;5074437;28;19920;-75
2022/09/10 01:26:57;;;;;;;;;;;15.00;99.90;;;;;;5078526;28;19941;-74
2022/09/10 01:29:28;;;;;;;;;;;15.00;99.90;;;;;;5080453;28;20587;-74
2022/09/10 01:31:57;;;;;;;;;;;14.90;99.90;;;;;;5076587;28;19924;-74
2022/09/10 01:34:43;;;;;;;;;;;14.80;99.90;;;;;;5075230;28;20444;-74
2022/09/10 01:37:13;;;;;;;;;;;14.70;99.90;;;;;;5077193;28;19916;-73
2022/09/10 01:39:39;;;;;;;;;;;14.70;99.90;;;;;;5078849;28;20393;-75
2022/09/10 01:42:05;;;;;;;;;;;14.70;99.90;;;;;;5076838;28;19978;-74
2022/09/10 01:44:43;;;;;;;;;;;14.60;99.90;;;;;;5076746;28;19920;-74
2022/09/10 01:47:25;;;;;;;;;;;14.60;99.90;;;;;;5081054;28;19920;-74
2022/09/10 01:50:15;;;;;;;;;;;14.60;99.90;;;;;;5077881;28;20297;-74
2022/09/10 01:53:00;;;;;;;;;;;14.50;99.90;;;;;;5079482;28;19916;-74
2022/09/10 01:55:29;;;;;;;;;;;14.50;99.90;;;;;;5081072;28;19916;-74
2022/09/10 01:58:09;;;;;;;;;;;14.40;99.90;;;;;;5081086;28;19979;-74
2022/09/10 02:00:37;;;;;;;;;;;14.50;99.90;;;;;;5082890;28;19934;-74
2022/09/10 02:03:02;;;;;;;;;;;14.40;99.90;;;;;;5102022;27;19977;-74
2022/09/10 02:05:29;;;;;;;;;;;14.30;99.90;;;;;;5076764;28;19924;-73
2022/09/10 02:08:00;;;;;;;;;;;14.40;99.90;;;;;;5078125;28;20343;-74
2022/09/10 02:10:26;;;;;;;;;;;14.40;99.90;;;;;;5082540;28;21735;-74
2022/09/10 02:12:52;;;;;;;;;;;14.40;99.90;;;;;;5078848;28;20007;-75
2022/09/10 02:15:17;;;;;;;;;;;14.20;99.90;;;;;;5080293;28;20001;-74
2022/09/10 02:17:45;;;;;;;;;;;14.20;99.90;;;;;;5075613;28;20351;-74
2022/09/10 02:20:13;;;;;;;;;;;14.30;99.90;;;;;;5080980;28;19916;-73
2022/09/10 02:22:41;;;;;;;;;;;14.20;99.90;;;;;;5079523;28;20021;-74
2022/09/10 02:25:08;;;;;;;;;;;14.20;99.90;;;;;;5081330;28;19916;-74
2022/09/10 02:27:34;;;;;;;;;;;14.20;99.90;;;;;;5082311;28;20020;-74
2022/09/10 02:30:00;;;;;;;;;;;14.10;99.90;;;;;;5078926;28;20018;-74
2022/09/10 02:32:25;;;;;;;;;;;14.10;99.90;;;;;;5079477;28;19916;-74
2022/09/10 02:34:51;;;;;;;;;;;14.00;99.90;;;;;;5079994;28;19922;-74
2022/09/10 02:37:18;;;;;;;;;;;14.00;99.90;;;;;;5081362;28;19927;-74
2022/09/10 02:39:45;;;;;;;;;;;13.90;99.90;;;;;;5078334;28;19927;-74
2022/09/10 02:42:14;;;;;;;;;;;13.90;99.90;;;;;;5079891;28;19924;-74
2022/09/10 02:44:40;;;;;;;;;;;13.80;99.90;;;;;;5079322;28;19959;-74
2022/09/10 02:47:05;;;;;;;;;;;13.80;99.90;;;;;;5077759;28;19959;-74
2022/09/10 02:49:33;;;;;;;;;;;13.80;99.90;;;;;;5070011;28;19963;-74
2022/09/10 02:52:01;;;;;;;;;;;13.80;99.90;;;;;;5075250;28;19916;-73
2022/09/10 02:54:27;;;;;;;;;;;13.80;99.90;;;;;;5079215;28;20408;-74
2022/09/10 02:56:53;;;;;;;;;;;13.90;99.90;;;;;;5079863;28;19967;-74
2022/09/10 02:59:18;;;;;;;;;;;13.90;99.90;;;;;;5078206;28;20461;-73
2022/09/10 03:01:44;;;;;;;;;;;13.90;99.90;;;;;;5080232;28;19943;-73
2022/09/10 03:04:10;;;;;;;;;;;13.90;99.90;;;;;;5080724;28;19964;-74
2022/09/10 03:06:36;;;;;;;;;;;13.80;99.90;;;;;;5071221;28;19961;-74
2022/09/10 03:09:02;;;;;;;;;;;13.90;99.90;;;;;;5077708;28;19920;-74
2022/09/10 03:11:28;;;;;;;;;;;13.90;99.90;;;;;;5079854;28;19912;-74
2022/09/10 03:13:53;;;;;;;;;;;13.90;99.90;;;;;;5078036;28;19920;-74
2022/09/10 03:16:19;;;;;;;;;;;14.00;99.90;;;;;;5078961;28;20690;-73
2022/09/10 03:18:44;;;;;;;;;;;14.00;99.90;;;;;;5078769;28;19920;-74
2022/09/10 03:21:10;;;;;;;;;;;14.00;99.90;;;;;;5078555;28;19915;-74
2022/09/10 03:23:36;;;;;;;;;;;13.90;99.90;;;;;;5079078;28;20388;-74
2022/09/10 03:26:03;;;;;;;;;;;13.80;99.90;;;;;;5079766;28;20003;-73
2022/09/10 03:28:28;;;;;;;;;;;13.90;99.90;;;;;;5079761;28;19939;-74
2022/09/10 03:30:54;;;;;;;;;;;13.90;99.90;;;;;;5076468;28;20381;-74
2022/09/10 03:33:20;;;;;;;;;;;13.80;99.90;;;;;;5080826;28;20341;-74
2022/09/10 03:35:47;;;;;;;;;;;13.80;99.90;;;;;;5067363;28;20493;-74
2022/09/10 03:38:12;;;;;;;;;;;13.90;99.90;;;;;;5076097;28;19916;-74
2022/09/10 03:40:38;;;;;;;;;;;13.80;99.90;;;;;;5079387;28;19970;-74
2022/09/10 03:43:04;;;;;;;;;;;13.70;99.90;;;;;;5076329;28;19977;-74
2022/09/10 03:45:29;;;;;;;;;;;13.70;99.90;;;;;;5079109;28;19916;-74
2022/09/10 03:47:55;;;;;;;;;;;13.60;99.90;;;;;;5078020;28;19920;-74
2022/09/10 03:50:21;;;;;;;;;;;13.60;99.90;;;;;;5073922;28;19923;-74
2022/09/10 03:52:46;;;;;;;;;;;13.60;99.90;;;;;;5078339;28;19924;-74
2022/09/10 03:55:12;;;;;;;;;;;13.50;99.90;;;;;;5079075;28;19954;-74
2022/09/10 03:57:38;;;;;;;;;;;13.50;99.90;;;;;;5078038;28;20299;-75
2022/09/10 04:00:03;;;;;;;;;;;13.60;99.90;;;;;;5077752;28;20319;-74
2022/09/10 04:02:29;;;;;;;;;;;13.60;99.90;;;;;;5076699;28;19928;-74
2022/09/10 04:04:55;;;;;;;;;;;13.60;99.90;;;;;;5067027;28;19961;-74
2022/09/10 04:07:20;;;;;;;;;;;13.50;99.90;;;;;;5078033;28;20001;-73
2022/09/10 04:09:46;;;;;;;;;;;13.50;99.90;;;;;;5079837;28;20731;-74
2022/09/10 04:12:11;;;;;;;;;;;13.50;99.90;;;;;;5078074;28;20010;-74
2022/09/10 04:14:37;;;;;;;;;;;13.60;99.90;;;;;;5079004;28;19922;-73
2022/09/10 04:17:02;;;;;;;;;;;13.60;99.90;;;;;;5075701;28;19912;-74
2022/09/10 04:19:28;;;;;;;;;;;13.50;99.90;;;;;;5079428;28;19958;-74
2022/09/10 04:21:54;;;;;;;;;;;13.50;99.90;;;;;;5104716;27;19964;-74
2022/09/10 04:24:19;;;;;;;;;;;13.60;99.90;;;;;;5078142;28;19986;-75
2022/09/10 04:26:45;;;;;;;;;;;13.60;99.90;;;;;;5077830;28;20020;-75
2022/09/10 04:29:11;;;;;;;;;;;13.60;99.90;;;;;;5077191;28;20511;-74
2022/09/10 04:31:37;;;;;;;;;;;13.60;99.90;;;;;;5079395;28;19936;-73
2022/09/10 04:34:04;;;;;;;;;;;13.60;99.90;;;;;;5078640;28;20308;-74
2022/09/10 04:36:29;;;;;;;;;;;13.60;99.90;;;;;;5077474;28;19923;-74
2022/09/10 04:38:55;;;;;;;;;;;13.60;99.90;;;;;;5077764;28;19916;-74
2022/09/10 04:41:20;;;;;;;;;;;13.60;99.90;;;;;;5077011;28;19928;-74
2022/09/10 04:43:46;;;;;;;;;;;13.60;99.90;;;;;;5075890;28;20471;-74
2022/09/10 04:46:11;;;;;;;;;;;13.60;99.90;;;;;;5059631;28;19917;-74
2022/09/10 04:48:37;;;;;;;;;;;13.70;99.90;;;;;;5049603;28;19917;-73
2022/09/10 04:51:03;;;;;;;;;;;13.70;99.90;;;;;;5064997;28;19931;-74
2022/09/10 04:53:30;;;;;;;;;;;13.80;99.90;;;;;;5049056;28;19999;-74
2022/09/10 04:55:55;;;;;;;;;;;13.70;99.90;;;;;;5051248;28;19959;-75
2022/09/10 04:58:21;;;;;;;;;;;13.70;99.90;;;;;;5053283;28;19916;-74
2022/09/10 05:00:47;;;;;;;;;;;13.60;99.90;;;;;;5060237;28;19927;-74
2022/09/10 05:03:13;;;;;;;;;;;13.40;99.90;;;;;;5055580;28;19924;-75
2022/09/10 05:05:39;;;;;;;;;;;13.40;99.90;;;;;;5065109;28;19919;-74
2022/09/10 05:08:06;;;;;;;;;;;13.50;99.90;;;;;;5083930;28;19912;-75
2022/09/10 05:10:31;;;;;;;;;;;13.50;99.90;;;;;;5048646;28;19971;-74
2022/09/10 05:12:57;;;;;;;;;;;13.50;99.90;;;;;;5057584;28;19920;-75
2022/09/10 05:15:22;;;;;;;;;;;13.50;99.90;;;;;;5054675;28;20791;-74
2022/09/10 05:17:48;;;;;;;;;;;13.50;99.90;;;;;;5060823;28;19916;-75
2022/09/10 05:20:14;;;;;;;;;;;13.40;99.90;;;;;;5052675;28;19916;-75
2022/09/10 05:22:41;;;;;;;;;;;13.20;99.90;;;;;;5043529;28;20029;-75
2022/09/10 05:25:06;;;;;;;;;;;13.10;99.90;;;;;;5058197;28;19974;-75
2022/09/10 05:27:32;;;;;;;;;;;13.10;99.90;;;;;;5051483;28;19920;-75
2022/09/10 05:29:58;;;;;;;;;;;13.00;99.90;;;;;;5054859;28;20321;-75
2022/09/10 05:32:23;;;;;;;;;;;13.10;99.90;;;;;;5079183;28;19920;-75
2022/09/10 05:34:49;;;;;;;;;;;13.10;99.90;;;;;;5079796;28;19986;-74
2022/09/10 05:37:15;;;;;;;;;;;13.10;99.90;;;;;;5058187;28;19960;-75
2022/09/10 05:39:40;;;;;;;;;;;13.20;99.90;;;;;;5050967;28;19917;-75
2022/09/10 05:42:06;;;;;;;;;;;13.40;99.90;;;;;;5043928;28;20411;-75
2022/09/10 05:44:32;;;;;;;;;;;13.40;99.90;;;;;;5060464;28;19921;-74
2022/09/10 05:46:57;;;;;;;;;;;13.60;99.90;;;;;;5049642;28;20451;-74
2022/09/10 05:49:23;;;;;;;;;;;13.80;99.90;;;;;;5043360;28;20324;-74
2022/09/10 05:51:49;;;;;;;;;;;13.70;99.90;;;;;;5058219;28;19962;-74
2022/09/10 05:54:15;;;;;;;;;;;13.80;99.90;;;;;;5053221;28;19920;-74
2022/09/10 05:56:40;;;;;;;;;;;14.00;99.90;;;;;;5058774;28;19916;-74
2022/09/10 05:59:06;;;;;;;;;;;14.10;99.90;;;;;;5054364;28;19925;-74
2022/09/10 06:01:32;;;;;;;;;;;14.30;99.90;;;;;;5050386;28;19959;-74
2022/09/10 06:03:57;;;;;;;;;;;14.90;99.90;;;;;;5051125;28;19919;-73
2022/09/10 06:06:26;;;;;;;;;;;15.00;99.90;;;;;;5050999;28;20007;-73
2022/09/10 06:08:53;;;;;;;;;;;14.80;99.90;;;;;;5046612;28;19923;-74
2022/09/10 06:11:19;;;;;;;;;;;14.90;99.90;;;;;;5045964;28;19916;-73
2022/09/10 06:13:44;;;;;;;;;;;14.60;99.90;;;;;;5053080;28;20385;-74
2022/09/10 06:16:11;;;;;;;;;;;14.40;99.90;;;;;;5055126;28;20423;-74
2022/09/10 06:18:37;;;;;;;;;;;14.30;99.90;;;;;;5042920;28;19917;-74
2022/09/10 06:21:02;;;;;;;;;;;14.40;99.90;;;;;;5042932;28;20290;-74
2022/09/10 06:23:28;;;;;;;;;;;14.50;99.90;;;;;;5042797;28;20373;-74
2022/09/10 06:26:03;;;;;;;;;;;14.40;99.90;;;;;;5043251;28;19943;-74
2022/09/10 06:28:29;;;;;;;;;;;14.40;99.90;;;;;;5044862;28;20305;-74
2022/09/10 06:30:54;;;;;;;;;;;14.60;99.90;;;;;;5055515;28;19975;-74
2022/09/10 06:33:20;;;;;;;;;;;14.90;99.90;;;;;;5049611;28;19917;-75
2022/09/10 06:35:56;;;;;;;;;;;14.90;99.90;;;;;;5046545;28;19913;-74
2022/09/10 06:38:21;;;;;;;;;;;15.10;99.90;;;;;;5045803;28;20702;-73
2022/09/10 06:40:54;;;;;;;;;;;15.30;99.90;;;;;;5061869;28;19965;-74
2022/09/10 06:43:21;;;;;;;;;;;15.50;99.90;;;;;;5065176;28;20404;-74
2022/09/10 06:45:46;;;;;;;;;;;15.60;99.90;;;;;;5066369;28;19955;-74
2022/09/10 06:48:12;;;;;;;;;;;15.70;99.90;;;;;;5066401;28;19955;-74
2022/09/10 06:50:37;;;;;;;;;;;15.60;99.90;;;;;;5065337;28;19916;-74
2022/09/10 06:53:03;;;;;;;;;;;15.60;99.90;;;;;;5065499;28;19917;-74
2022/09/10 06:55:28;;;;;;;;;;;15.50;99.90;;;;;;5064749;28;20443;-74
2022/09/10 06:57:54;;;;;;;;;;;15.70;99.90;;;;;;5065424;28;20031;-74
2022/09/10 07:00:19;;;;;;;;;;;15.80;99.90;;;;;;5063497;28;19924;-74
2022/09/10 07:02:45;;;;;;;;;;;16.10;99.90;;;;;;5065408;28;19924;-74
2022/09/10 07:05:11;;;;;;;;;;;16.10;99.90;;;;;;5065615;28;19918;-74
2022/09/10 07:07:36;;;;;;;;;;;16.20;99.90;;;;;;5064966;28;19912;-75
2022/09/10 07:10:02;;;;;;;;;;;16.30;99.90;;;;;;5047332;28;19960;-74
2022/09/10 07:12:27;;;;;;;;;;;16.20;99.90;;;;;;5065502;28;19993;-74
2022/09/10 07:14:53;;;;;;;;;;;16.50;99.90;;;;;;5066231;28;19908;-75
2022/09/10 07:17:19;;;;;;;;;;;16.70;99.90;;;;;;5065832;28;19912;-74
2022/09/10 07:19:45;;;;;;;;;;;17.10;99.90;;;;;;5066020;28;19916;-75
2022/09/10 07:22:10;;;;;;;;;;;17.70;99.90;;;;;;5065564;28;20384;-75
2022/09/10 07:24:36;;;;;;;;;;;18.20;99.90;;;;;;5066112;28;19913;-74
2022/09/10 07:27:01;;;;;;;;;;;18.70;99.90;;;;;;5066019;28;19916;-74
2022/09/10 07:29:30;;;;;;;;;;;18.80;99.90;;;;;;5065733;28;20003;-74
2022/09/10 07:31:55;;;;;;;;;;;18.50;99.90;;;;;;5065429;28;19912;-75
2022/09/10 07:34:21;;;;;;;;;;;17.70;99.90;;;;;;5065486;28;19912;-76
2022/09/10 07:36:47;;;;;;;;;;;17.50;99.90;;;;;;5066113;28;20582;-74
2022/09/10 07:39:12;;;;;;;;;;;17.30;99.90;;;;;;5065494;28;19990;-75
2022/09/10 07:41:38;;;;;;;;;;;17.20;99.90;;;;;;5061819;28;20412;-74
2022/09/10 07:44:03;;;;;;;;;;;17.60;99.90;;;;;;5044638;28;19913;-74
2022/09/10 07:46:29;;;;;;;;;;;18.60;99.90;;;;;;5027566;28;19913;-74
2022/09/10 07:48:56;;;;;;;;;;;18.50;99.90;;;;;;5045299;28;19917;-74
2022/09/10 07:51:22;;;;;;;;;;;18.40;99.90;;;;;;5044514;28;19928;-75
2022/09/10 07:53:54;;;;;;;;;;;18.20;99.90;;;;;;5045558;28;20192;-74
2022/09/10 07:56:21;;;;;;;;;;;18.30;99.90;;;;;;5045071;28;20011;-74
2022/09/10 07:58:47;;;;;;;;;;;18.80;99.90;;;;;;5047349;28;19978;-74
2022/09/10 08:01:13;;;;;;;;;;;19.60;99.90;;;;;;5064867;28;19913;-75
2022/09/10 08:03:39;;;;;;;;;;;20.90;99.90;;;;;;5065002;28;20721;-76
2022/09/10 08:06:05;;;;;;;;;;;22.40;99.90;;;;;;5063434;28;20424;-76
2022/09/10 08:08:31;;;;;;;;;;;22.50;99.90;;;;;;5064563;28;19959;-74
2022/09/10 08:11:25;;;;;;;;;;;23.80;99.20;;;;;;5064887;28;20015;-75
2022/09/10 08:13:52;;;;;;;;;;;22.30;99.90;;;;;;5021488;28;19920;-75
2022/09/10 08:16:19;;;;;;;;;;;22.20;99.70;;;;;;5021168;28;19913;-74
2022/09/10 08:18:46;;;;;;;;;;;21.80;99.90;;;;;;5021034;28;19919;-75
2022/09/10 08:21:12;;;;;;;;;;;22.90;99.70;;;;;;5021280;28;19924;-75
2022/09/10 08:23:38;;;;;;;;;;;23.30;99.20;;;;;;5021563;28;19921;-75
2022/09/10 08:26:05;;;;;;;;;;;23.40;98.10;;;;;;5005131;28;19921;-75
2022/09/10 08:28:31;;;;;;;;;;;23.20;98.90;;;;;;5021304;28;20588;-75
2022/09/10 08:31:01;;;;;;;;;;;22.90;99.20;;;;;;5021334;28;19924;-75
2022/09/10 08:33:27;;;;;;;;;;;22.90;97.80;;;;;;5021432;28;20497;-75
2022/09/10 08:35:57;;;;;;;;;;;23.30;97.60;;;;;;5021401;28;19992;-75
2022/09/10 08:38:29;;;;;;;;;;;22.70;98.40;;;;;;5021196;28;20003;-76
2022/09/10 08:40:56;;;;;;;;;;;23.60;97.90;;;;;;5021492;28;19924;-75
2022/09/10 08:43:30;;;;;;;;;;;21.80;99.70;;;;;;5020815;28;19920;-75
2022/09/10 08:45:56;;;;;;;;;;;21.10;99.90;;;;;;5020754;28;19955;-75
2022/09/10 08:48:23;;;;;;;;;;;20.50;99.90;;;;;;5020563;28;19913;-75
2022/09/10 08:50:51;;;;;;;;;;;20.20;99.90;;;;;;5042493;28;20376;-74
2022/09/10 08:53:26;;;;;;;;;;;20.10;99.90;;;;;;5063936;28;19942;-75
2022/09/10 08:55:58;;;;;;;;;;;20.20;99.90;;;;;;5063254;28;19930;-75
2022/09/10 08:58:32;;;;;;;;;;;19.80;99.90;;;;;;5063468;28;19917;-75
2022/09/10 09:01:00;;;;;;;;;;;19.50;99.90;;;;;;5063807;28;19932;-75
2022/09/10 09:03:43;;;;;;;;;;;19.60;99.90;;;;;;5063300;28;19963;-75
2022/09/10 09:06:29;;;;;;;;;;;20.60;99.90;;;;;;5063435;28;19959;-75
2022/09/10 09:08:55;;;;;;;;;;;24.90;99.50;;;;;;5063627;28;19944;-75
2022/09/10 09:11:20;;;;;;;;;;;27.60;95.50;;;;;;5063585;28;19982;-75
2022/09/10 09:13:48;;;;;;;;;;;28.00;93.60;;;;;;5063395;28;19912;-75
2022/09/10 09:16:43;;;;;;;;;;;29.00;91.30;;;;;;5063042;28;19913;-75
2022/09/10 09:19:09;;;;;;;;;;;27.90;90.00;;;;;;5020422;28;19997;-75
2022/09/10 09:21:51;;;;;;;;;;;25.90;91.10;;;;;;5020248;28;19917;-76
2022/09/10 09:24:21;;;;;;;;;;;23.90;94.30;;;;;;5020002;28;20381;-75
2022/09/10 09:26:48;;;;;;;;;;;22.60;97.70;;;;;;5003820;28;19980;-75
2022/09/10 09:29:29;;;;;;;;;;;23.70;97.00;;;;;;5020284;28;19917;-75
2022/09/10 09:31:59;;;;;;;;;;;24.80;94.30;;;;;;5019841;28;19994;-75
2022/09/10 09:34:32;;;;;;;;;;;27.00;91.70;;;;;;5020446;28;19917;-76
2022/09/10 09:37:00;;;;;;;;;;;28.20;90.00;;;;;;5003433;28;19933;-76
2022/09/10 09:39:42;;;;;;;;;;;28.50;86.20;;;;;;5020740;28;19944;-75
2022/09/10 09:42:21;;;;;;;;;;;28.30;84.90;;;;;;5020415;28;19921;-75
2022/09/10 09:44:54;;;;;;;;;;;28.60;82.00;;;;;;5020870;28;19913;-75
2022/09/10 09:47:19;;;;;;;;;;;28.20;83.50;;;;;;5020490;28;20003;-74
2022/09/10 09:49:45;;;;;;;;;;;28.10;83.90;;;;;;5020540;28;19998;-76
2022/09/10 09:52:19;;;;;;;;;;;28.40;81.60;;;;;;5035609;28;20732;-75
2022/09/10 09:54:48;;;;;;;;;;;28.20;81.40;;;;;;5028784;28;19942;-75
2022/09/10 09:57:14;;;;;;;;;;;27.30;82.70;;;;;;5062857;28;20540;-76
2022/09/10 09:59:40;;;;;;;;;;;25.60;85.90;;;;;;5062963;28;20408;-75
2022/09/10 10:02:22;;;;;;;;;;;25.30;86.70;;;;;;5063261;28;20043;-75
2022/09/10 10:05:05;;;;;;;;;;;25.30;87.60;;;;;;5061959;28;19913;-75
2022/09/10 10:07:32;;;;;;;;;;;24.50;88.50;;;;;;5066268;28;19919;-75
2022/09/10 10:09:59;;;;;;;;;;;22.90;91.30;;;;;;5067070;28;19916;-76
2022/09/10 10:12:27;;;;;;;;;;;23.60;92.90;;;;;;5066522;28;19916;-75
2022/09/10 10:14:53;;;;;;;;;;;24.00;91.20;;;;;;5066592;28;19912;-75
2022/09/10 10:17:22;;;;;;;;;;;23.40;91.90;;;;;;5066796;28;19919;-75
2022/09/10 10:20:07;;;;;;;;;;;22.90;92.20;;;;;;5066714;28;20013;-75
2022/09/10 10:22:34;;;;;;;;;;;22.60;92.70;;;;;;5066312;28;19920;-75
2022/09/10 10:25:00;;;;;;;;;;;22.20;92.80;;;;;;5066205;28;19913;-75
2022/09/10 10:27:29;;;;;;;;;;;22.30;92.20;;;;;;5066247;28;19924;-75
2022/09/10 10:29:54;;;;;;;;;;;22.60;92.90;;;;;;5066469;28;20665;-75
2022/09/10 10:32:22;;;;;;;;;;;22.80;92.90;;;;;;5066620;28;19919;-75
2022/09/10 10:34:54;;;;;;;;;;;22.40;93.30;;;;;;5066445;28;20163;-76
2022/09/10 10:37:35;;;;;;;;;;;22.80;94.10;;;;;;5066440;28;19993;-75
2022/09/10 10:40:10;;;;;;;;;;;22.20;92.20;;;;;;5066839;28;19913;-74
2022/09/10 10:42:38;;;;;;;;;;;22.30;91.80;;;;;;5064639;28;19927;-75
2022/09/10 10:45:13;;;;;;;;;;;22.40;91.00;;;;;;5066653;28;19916;-74
2022/09/10 10:47:43;;;;;;;;;;;22.50;93.10;;;;;;5066659;28;20324;-74
2022/09/10 10:50:15;;;;;;;;;;;23.20;92.10;;;;;;5064613;28;20414;-75
2022/09/10 10:53:07;;;;;;;;;;;23.20;92.40;;;;;;5066704;28;20011;-75
2022/09/10 10:55:36;;;;;;;;;;;23.40;92.40;;;;;;5043582;28;20510;-74
2022/09/10 10:58:02;;;;;;;;;;;22.90;91.10;;;;;;5043284;28;19912;-76
2022/09/10 11:00:30;;;;;;;;;;;22.80;91.10;;;;;;5043499;28;19928;-75
2022/09/10 11:03:13;;;;;;;;;;;22.70;92.10;;;;;;5042914;28;19921;-75
2022/09/10 11:05:43;;;;;;;;;;;22.90;93.00;;;;;;5043642;28;19909;-75
2022/09/10 11:08:14;;;;;;;;;;;23.20;90.60;;;;;;5043374;28;19960;-75
2022/09/10 11:10:42;;;;;;;;;;;23.40;91.40;;;;;;5043412;28;19932;-75
2022/09/10 11:13:13;;;;;;;;;;;23.40;91.20;;;;;;5042810;28;20015;-75
2022/09/10 11:15:54;;;;;;;;;;;24.00;91.00;;;;;;5043330;28;19916;-76
2022/09/10 11:18:27;;;;;;;;;;;23.80;90.50;;;;;;5042204;28;19936;-75
2022/09/10 11:21:05;;;;;;;;;;;24.00;89.90;;;;;;5043049;28;20446;-75
2022/09/10 11:23:53;;;;;;;;;;;24.10;89.40;;;;;;5042789;28;19921;-75
2022/09/10 11:26:19;;;;;;;;;;;23.60;88.00;;;;;;5042781;28;20023;-75
2022/09/10 11:29:12;;;;;;;;;;;23.60;89.70;;;;;;5043024;28;20031;-75
2022/09/10 11:31:46;;;;;;;;;;;23.60;88.60;;;;;;4967218;28;19935;-75
2022/09/10 11:34:27;;;;;;;;;;;23.90;89.30;;;;;;4983301;28;20526;-75
2022/09/10 11:37:10;;;;;;;;;;;24.10;90.70;;;;;;4982559;28;19913;-75
2022/09/10 11:39:39;;;;;;;;;;;24.20;89.10;;;;;;4982943;28;19929;-76
2022/09/10 11:42:31;;;;;;;;;;;23.90;88.10;;;;;;4962768;28;20380;-75
2022/09/10 11:44:57;;;;;;;;;;;23.80;83.90;;;;;;4961403;28;19914;-76
2022/09/10 11:47:34;;;;;;;;;;;23.90;84.00;;;;;;4963465;28;19984;-75
2022/09/10 11:50:02;;;;;;;;;;;23.90;85.00;;;;;;4963551;28;20055;-75
2022/09/10 11:52:30;;;;;;;;;;;24.00;86.90;;;;;;4981412;28;20004;-75
2022/09/10 11:54:56;;;;;;;;;;;24.00;88.70;;;;;;4982900;28;19922;-75
2022/09/10 11:57:25;;;;;;;;;;;23.60;86.00;;;;;;4982733;28;19965;-75
2022/09/10 11:59:59;;;;;;;;;;;23.40;89.20;;;;;;4982888;28;19926;-75
2022/09/10 12:02:25;;;;;;;;;;;23.10;90.20;;;;;;4982821;28;19926;-75
2022/09/10 12:05:09;;;;;;;;;;;23.30;88.80;;;;;;4982807;28;19988;-76
2022/09/10 12:07:51;;;;;;;;;;;23.30;90.10;;;;;;4993393;28;19918;-75
2022/09/10 12:10:22;;;;;;;;;;;23.30;87.60;;;;;;5064276;28;20046;-74
2022/09/10 12:12:49;;;;;;;;;;;23.20;89.60;;;;;;5064816;28;19916;-76
2022/09/10 12:15:17;;;;;;;;;;;23.10;90.60;;;;;;5064639;28;19952;-75
2022/09/10 12:17:45;;;;;;;;;;;23.50;90.70;;;;;;5064867;28;19969;-75
2022/09/10 12:20:16;;;;;;;;;;;23.30;87.70;;;;;;5065215;28;19912;-75
2022/09/10 12:22:42;;;;;;;;;;;22.90;83.00;;;;;;5064449;28;20015;-75
2022/09/10 12:25:14;;;;;;;;;;;23.10;85.90;;;;;;5064343;28;20361;-75
2022/09/10 12:27:47;;;;;;;;;;;23.00;84.00;;;;;;5064327;28;19912;-75
2022/09/10 12:30:26;;;;;;;;;;;22.40;82.20;;;;;;5046367;28;19978;-75
2022/09/10 12:32:52;;;;;;;;;;;22.50;85.20;;;;;;5064655;28;20015;-74
2022/09/10 12:35:36;;;;;;;;;;;22.80;88.60;;;;;;5064084;28;20019;-75
2022/09/10 12:38:20;;;;;;;;;;;23.00;86.00;;;;;;5064367;28;20016;-75
2022/09/10 12:40:48;;;;;;;;;;;23.00;89.20;;;;;;5063759;28;19919;-74
2022/09/10 12:43:33;;;;;;;;;;;23.10;84.00;;;;;;5063423;28;19920;-75
2022/09/10 12:46:07;;;;;;;;;;;23.20;85.20;;;;;;5063970;28;19912;-76
2022/09/10 12:48:34;;;;;;;;;;;23.10;84.40;;;;;;5064165;28;19935;-75
2022/09/10 12:51:04;;;;;;;;;;;23.10;85.70;;;;;;5062912;28;20872;-74
2022/09/10 12:53:46;;;;;;;;;;;22.90;82.20;;;;;;5063698;28;19923;-75
2022/09/10 12:56:24;;;;;;;;;;;22.70;82.20;;;;;;5063974;28;19973;-75
2022/09/10 12:59:09;;;;;;;;;;;22.50;80.90;;;;;;5063537;28;19920;-75
2022/09/10 13:01:44;;;;;;;;;;;22.60;81.60;;;;;;5062913;28;19931;-75
2022/09/10 13:04:33;;;;;;;;;;;22.30;81.50;;;;;;5064425;28;20736;-74
2022/09/10 13:07:26;;;;;;;;;;;22.30;81.90;;;;;;5055833;28;20274;-75
2022/09/10 13:09:57;;;;;;;;;;;22.30;84.80;;;;;;5060882;28;19935;-75
2022/09/10 13:12:23;;;;;;;;;;;22.30;83.00;;;;;;5063887;28;19912;-75
2022/09/10 13:14:52;;;;;;;;;;;22.10;83.70;;;;;;5064338;28;19908;-74
2022/09/10 13:17:36;;;;;;;;;;;22.00;82.70;;;;;;5063583;28;19912;-75
2022/09/10 13:20:27;;;;;;;;;;;22.10;81.60;;;;;;5063854;28;19959;-75
2022/09/10 13:22:53;;;;;;;;;;;22.40;83.60;;;;;;5063296;28;20062;-76
2022/09/10 13:25:30;;;;;;;;;;;22.20;81.40;;;;;;5063250;28;20030;-75
2022/09/10 13:27:56;;;;;;;;;;;22.40;86.50;;;;;;5063481;28;19958;-75
2022/09/10 13:30:22;;;;;;;;;;;22.30;84.40;;;;;;5063626;28;19912;-74
2022/09/10 13:32:52;;;;;;;;;;;22.30;86.40;;;;;;5063491;28;19919;-75
2022/09/10 13:35:20;;;;;;;;;;;22.30;86.30;;;;;;5063328;28;19912;-75
2022/09/10 13:37:52;;;;;;;;;;;22.20;89.00;;;;;;5062916;28;19916;-75
2022/09/10 13:40:33;;;;;;;;;;;22.20;86.50;;;;;;5063498;28;20327;-75
2022/09/10 13:43:00;;;;;;;;;;;22.00;82.50;;;;;;5066594;28;20455;-75
2022/09/10 13:45:40;;;;;;;;;;;21.70;80.50;;;;;;5067082;28;20011;-75
2022/09/10 13:48:13;;;;;;;;;;;21.70;81.50;;;;;;5067251;28;20388;-75
2022/09/10 13:50:45;;;;;;;;;;;21.70;83.20;;;;;;5066055;28;19916;-74
2022/09/10 13:53:12;;;;;;;;;;;21.90;83.70;;;;;;5066721;28;19948;-74
2022/09/10 13:55:40;;;;;;;;;;;22.00;84.80;;;;;;5067098;28;20007;-75
2022/09/10 13:58:13;;;;;;;;;;;21.90;85.90;;;;;;5066599;28;20077;-75
2022/09/10 14:00:40;;;;;;;;;;;21.70;82.40;;;;;;5067112;28;19924;-75
2022/09/10 14:03:13;;;;;;;;;;;21.70;85.40;;;;;;5066788;28;19920;-75
2022/09/10 14:05:45;;;;;;;;;;;21.80;87.40;;;;;;5067054;28;20396;-75
2022/09/10 14:08:14;;;;;;;;;;;21.90;90.80;;;;;;5066197;28;19913;-75
2022/09/10 14:11:00;;;;;;;;;;;21.80;86.80;;;;;;5066838;28;19954;-75
2022/09/10 14:13:36;;;;;;;;;;;21.70;86.30;;;;;;5066329;28;19922;-75
2022/09/10 14:16:03;;;;;;;;;;;21.70;87.60;;;;;;5067047;28;19913;-75
2022/09/10 14:18:34;;;;;;;;;;;21.60;84.40;;;;;;5066933;28;19909;-75
2022/09/10 14:21:00;;;;;;;;;;;21.50;84.30;;;;;;5066810;28;19919;-75
2022/09/10 14:23:25;;;;;;;;;;;21.60;84.00;;;;;;5066429;28;19925;-75
2022/09/10 14:26:07;;;;;;;;;;;21.70;84.90;;;;;;5066467;28;19951;-75
2022/09/10 14:28:33;;;;;;;;;;;21.90;85.70;;;;;;5066574;28;19912;-76
2022/09/10 14:31:19;;;;;;;;;;;21.90;84.80;;;;;;5066662;28;19912;-75